createdAt,value
2023-12-24T00:08:12.979Z,9.30
2023-12-24T00:13:14.713Z,9.40
2023-12-24T00:18:16.589Z,9.40
2023-12-24T00:23:19.869Z,9.30
2023-12-24T00:28:21.647Z,9.20
2023-12-24T00:33:23.625Z,9.30
2023-12-24T00:38:27.049Z,9.30
2023-12-24T00:43:28.910Z,9.30
2023-12-24T00:48:46.006Z,9.30
2023-12-24T00:53:49.391Z,9.30
2023-12-24T00:58:51.201Z,9.40
2023-12-24T01:03:53.062Z,9.50
2023-12-24T01:08:56.257Z,9.60
2023-12-24T01:13:58.203Z,9.60
2023-12-24T01:19:00.067Z,9.60
2023-12-24T01:24:03.497Z,9.60
2023-12-24T01:29:05.510Z,9.60
2023-12-24T01:34:07.456Z,9.60
2023-12-24T01:39:10.635Z,9.60
2023-12-24T01:44:12.403Z,9.60
2023-12-24T01:49:16.090Z,9.70
2023-12-24T01:54:20.403Z,9.70
2023-12-24T01:59:22.533Z,9.70
2023-12-24T02:04:24.479Z,9.70
2023-12-24T02:09:27.588Z,9.70
2023-12-24T02:14:29.610Z,9.80
2023-12-24T02:19:31.874Z,9.80
2023-12-24T02:24:35.155Z,9.80
2023-12-24T02:29:43.420Z,9.80
2023-12-24T02:34:47.184Z,9.90
2023-12-24T02:39:50.312Z,9.90
2023-12-24T02:44:52.095Z,9.90
2023-12-24T02:49:53.934Z,9.80
2023-12-24T02:54:57.233Z,9.70
2023-12-24T02:59:58.934Z,9.80
2023-12-24T03:05:00.757Z,9.70
2023-12-24T03:10:04.904Z,9.80
2023-12-24T03:15:08.199Z,9.80
2023-12-24T03:20:10.746Z,9.80
2023-12-24T03:25:14.132Z,9.70
2023-12-24T03:30:16.133Z,9.50
2023-12-24T03:35:17.940Z,9.40
2023-12-24T03:40:21.167Z,9.50
2023-12-24T03:45:23.063Z,9.40
2023-12-24T03:50:24.850Z,9.40
2023-12-24T03:55:28.131Z,9.40
2023-12-24T04:00:29.915Z,9.40
2023-12-24T04:05:31.794Z,9.40
2023-12-24T04:10:35.000Z,9.40
2023-12-24T04:15:36.742Z,9.50
2023-12-24T04:20:38.530Z,9.50
2023-12-24T04:25:41.856Z,9.50
2023-12-24T04:30:43.812Z,9.60
2023-12-24T04:35:45.698Z,9.60
2023-12-24T04:40:48.922Z,9.50
2023-12-24T04:45:50.744Z,9.60
2023-12-24T04:50:52.485Z,9.50
2023-12-24T04:55:56.244Z,9.50
2023-12-24T05:00:58.480Z,9.50
2023-12-24T05:06:00.405Z,9.60
2023-12-24T05:11:06.051Z,9.50
2023-12-24T05:16:07.817Z,9.50
2023-12-24T05:21:09.578Z,9.50
2023-12-24T05:26:12.755Z,9.50
2023-12-24T05:31:14.529Z,9.40
2023-12-24T05:36:16.353Z,9.40
2023-12-24T05:41:19.564Z,9.30
2023-12-24T05:46:21.332Z,9.20
2023-12-24T05:51:23.125Z,9.00
2023-12-24T05:56:26.403Z,8.90
2023-12-24T06:01:28.148Z,8.60
2023-12-24T06:06:30.135Z,8.50
2023-12-24T06:11:33.370Z,8.50
2023-12-24T06:16:35.150Z,8.40
2023-12-24T06:21:36.936Z,8.30
2023-12-24T06:26:40.215Z,8.30
2023-12-24T06:31:42.055Z,8.20
2023-12-24T06:36:43.871Z,8.20
2023-12-24T06:41:47.115Z,8.10
2023-12-24T06:46:48.981Z,8.10
2023-12-24T06:51:50.719Z,8.10
2023-12-24T06:56:53.837Z,8.00
2023-12-24T07:01:55.595Z,8.00
2023-12-24T07:06:57.427Z,7.90
2023-12-24T07:12:00.576Z,7.90
2023-12-24T07:17:02.412Z,7.90
2023-12-24T07:22:04.617Z,7.90
2023-12-24T07:27:07.770Z,8.00
2023-12-24T07:32:09.629Z,8.00
2023-12-24T07:37:11.391Z,7.90
2023-12-24T07:42:14.528Z,7.90
2023-12-24T07:47:16.397Z,7.90
2023-12-24T07:52:18.207Z,7.90
2023-12-24T07:57:21.378Z,7.90
2023-12-24T08:02:23.258Z,8.00
2023-12-24T08:07:25.213Z,8.00
2023-12-24T08:12:28.459Z,7.90
2023-12-24T08:17:30.426Z,8.00
2023-12-24T08:22:32.288Z,8.00
2023-12-24T08:27:35.562Z,8.10
2023-12-24T08:32:37.449Z,8.10
2023-12-24T08:37:41.508Z,8.10
2023-12-24T08:42:44.608Z,8.10
2023-12-24T08:47:46.549Z,8.10
2023-12-24T08:52:48.514Z,8.10
2023-12-24T08:57:51.687Z,8.30
2023-12-24T09:02:53.857Z,8.40
2023-12-24T09:07:55.891Z,8.40
2023-12-24T09:12:59.052Z,8.50
2023-12-24T09:18:03.552Z,8.50
2023-12-24T09:23:05.490Z,8.60
2023-12-24T09:28:08.649Z,8.60
2023-12-24T09:33:10.631Z,8.70
2023-12-24T09:38:12.636Z,8.70
2023-12-24T09:43:15.890Z,8.60
2023-12-24T09:48:17.842Z,8.80
2023-12-24T09:53:19.778Z,8.80
2023-12-24T09:58:22.978Z,8.80
2023-12-24T10:03:24.760Z,8.90
2023-12-24T10:08:26.682Z,9.00
2023-12-24T10:13:29.830Z,9.10
2023-12-24T10:18:34.927Z,9.20
2023-12-24T10:23:37.215Z,9.20
2023-12-24T10:28:55.456Z,9.20
2023-12-24T10:34:03.221Z,9.20
2023-12-24T10:39:14.084Z,9.20
2023-12-24T10:44:17.429Z,9.30
2023-12-24T10:49:19.250Z,9.50
2023-12-24T10:54:21.178Z,9.50
2023-12-24T10:59:42.560Z,9.50
2023-12-24T11:04:44.992Z,9.50
2023-12-24T11:09:46.729Z,9.50
2023-12-24T11:14:49.923Z,9.50
2023-12-24T11:19:51.683Z,9.70
2023-12-24T11:25:17.074Z,9.70
2023-12-24T11:30:20.516Z,9.70
2023-12-24T11:35:52.141Z,9.80
2023-12-24T11:41:05.160Z,9.80
2023-12-24T11:46:10.155Z,9.80
2023-12-24T11:51:12.678Z,9.90
2023-12-24T11:56:16.255Z,9.90
2023-12-24T12:01:22.326Z,10.00
2023-12-24T12:06:24.619Z,10.00
2023-12-24T12:11:26.527Z,9.90
2023-12-24T12:16:29.777Z,10.10
2023-12-24T12:21:34.710Z,9.90
2023-12-24T12:26:36.634Z,10.00
2023-12-24T12:31:39.920Z,10.00
2023-12-24T12:36:41.626Z,10.00
2023-12-24T12:41:43.541Z,10.00
2023-12-24T12:46:46.682Z,10.10
2023-12-24T12:51:51.780Z,10.10
2023-12-24T12:56:54.992Z,10.10
2023-12-24T13:01:58.179Z,10.10
2023-12-24T13:06:59.979Z,10.10
2023-12-24T13:12:05.282Z,10.20
2023-12-24T13:17:09.533Z,10.10
2023-12-24T13:22:11.434Z,10.20
2023-12-24T13:27:13.207Z,10.20
2023-12-24T13:32:16.403Z,10.20
2023-12-24T13:37:18.261Z,10.20
2023-12-24T13:42:20.074Z,10.20
2023-12-24T13:47:23.293Z,10.20
2023-12-24T13:52:25.156Z,10.10
2023-12-24T13:57:26.856Z,9.90
2023-12-24T14:02:29.962Z,9.80
2023-12-24T14:07:32.206Z,9.70
2023-12-24T14:12:34.302Z,9.60
2023-12-24T14:17:38.117Z,9.50
2023-12-24T14:22:40.019Z,9.40
2023-12-24T14:27:41.784Z,9.30
2023-12-24T14:32:45.041Z,9.20
2023-12-24T14:37:46.967Z,9.20
2023-12-24T14:42:49.008Z,9.20
2023-12-24T14:47:52.308Z,9.20
2023-12-24T14:52:55.096Z,9.20
2023-12-24T14:57:57.050Z,9.20
2023-12-24T15:03:00.273Z,9.20
2023-12-24T15:08:04.095Z,9.20
2023-12-24T15:13:05.833Z,9.30
2023-12-24T15:18:09.055Z,9.40
2023-12-24T15:23:10.930Z,9.50
2023-12-24T15:28:12.730Z,9.50
2023-12-24T15:33:18.464Z,9.50
2023-12-24T15:38:20.413Z,9.60
2023-12-24T15:43:22.202Z,9.70
2023-12-24T15:48:25.464Z,9.70
2023-12-24T15:53:27.766Z,9.80
2023-12-24T15:58:29.501Z,9.80
2023-12-24T16:03:35.654Z,9.80
2023-12-24T16:08:38.651Z,9.80
2023-12-24T16:13:40.585Z,9.80
2023-12-24T16:18:43.812Z,9.80
2023-12-24T16:23:45.667Z,9.90
2023-12-24T16:28:47.468Z,9.90
2023-12-24T16:33:50.754Z,10.00
2023-12-24T16:38:52.979Z,10.00
2023-12-24T16:43:54.785Z,10.00
2023-12-24T16:48:58.123Z,10.00
2023-12-24T16:54:00.044Z,10.00
2023-12-24T16:59:02.398Z,10.00
2023-12-24T17:04:05.976Z,9.90
2023-12-24T17:09:07.849Z,9.80
2023-12-24T17:14:09.757Z,10.00
2023-12-24T17:19:12.967Z,10.00
2023-12-24T17:24:14.873Z,10.10
2023-12-24T17:29:17.368Z,10.00
2023-12-24T17:34:20.616Z,10.10
2023-12-24T17:39:22.393Z,10.20
2023-12-24T17:44:24.254Z,10.10
2023-12-24T17:49:27.573Z,10.20
2023-12-24T17:54:29.348Z,10.20
2023-12-24T17:59:31.129Z,10.10
2023-12-24T18:04:34.365Z,10.20
2023-12-24T18:09:36.415Z,10.20
2023-12-24T18:14:38.264Z,10.20
2023-12-24T18:19:41.502Z,10.20
2023-12-24T18:24:43.369Z,10.20
2023-12-24T18:29:45.264Z,10.20
2023-12-24T18:34:48.428Z,10.30
2023-12-24T18:39:50.136Z,10.30
2023-12-24T18:44:52.006Z,10.30
2023-12-24T18:49:55.185Z,10.40
2023-12-24T18:54:57.354Z,10.40
2023-12-24T18:59:59.262Z,10.40
2023-12-24T19:05:02.615Z,10.40
2023-12-24T19:10:05.188Z,10.40
2023-12-24T19:15:08.182Z,10.40
2023-12-24T19:20:12.159Z,10.40
2023-12-24T19:25:14.244Z,10.50
2023-12-24T19:30:16.188Z,10.40
2023-12-24T19:35:19.350Z,10.40
2023-12-24T19:40:21.155Z,10.40
2023-12-24T19:45:22.900Z,10.40
2023-12-24T19:50:27.745Z,10.40
2023-12-24T19:55:29.534Z,10.50
2023-12-24T20:00:31.385Z,10.50
2023-12-24T20:05:34.784Z,10.50
2023-12-24T20:10:36.704Z,10.50
2023-12-24T20:15:38.446Z,10.50
2023-12-24T20:20:41.644Z,10.60
2023-12-24T20:25:43.517Z,10.60
2023-12-24T20:30:45.284Z,10.60
2023-12-24T20:35:48.472Z,10.60
2023-12-24T20:40:50.284Z,10.60
2023-12-24T20:45:52.014Z,10.60
2023-12-24T20:50:55.334Z,10.60
2023-12-24T20:55:57.201Z,10.60
2023-12-24T21:00:58.943Z,10.60
2023-12-24T21:06:03.627Z,10.60
2023-12-24T21:11:05.458Z,10.60
2023-12-24T21:16:07.954Z,10.60
2023-12-24T21:21:11.196Z,10.70
2023-12-24T21:26:13.001Z,10.70
2023-12-24T21:31:14.806Z,10.70
2023-12-24T21:36:17.959Z,10.70
2023-12-24T21:41:19.829Z,10.70
2023-12-24T21:46:21.729Z,10.70
2023-12-24T21:51:25.151Z,10.70
2023-12-24T21:56:26.884Z,10.70
2023-12-24T22:01:32.578Z,10.70
2023-12-24T22:06:36.636Z,10.70
2023-12-24T22:11:39.862Z,10.60
2023-12-24T22:16:41.603Z,10.70
2023-12-24T22:21:45.740Z,10.70
2023-12-24T22:26:47.589Z,10.70
2023-12-24T22:31:49.422Z,10.70
2023-12-24T22:36:52.543Z,10.70
2023-12-24T22:41:54.470Z,10.70
2023-12-24T22:46:56.269Z,10.70
2023-12-24T22:51:59.411Z,10.60
2023-12-24T22:57:01.203Z,10.60
2023-12-24T23:02:03.044Z,10.60
2023-12-24T23:07:06.277Z,10.60
2023-12-24T23:12:10.506Z,10.50
2023-12-24T23:17:12.405Z,10.50
2023-12-24T23:22:15.712Z,10.50
2023-12-24T23:27:17.547Z,10.50
2023-12-24T23:32:22.342Z,10.60
2023-12-24T23:37:25.593Z,10.50
2023-12-24T23:42:27.473Z,10.50
2023-12-24T23:47:29.378Z,10.50
2023-12-24T23:52:32.471Z,10.50
2023-12-24T23:57:34.233Z,10.50
